Time;durP1;ratioP1;P1;durP2;ratioP2;P2;SDS_P1;SDS_P2;PMS_P1;PMS_P2;Temp;Humidity;BMP_temperature;BMP_pressure;BME280_temperature;BME280_humidity;BME280_pressure;Samples;Min_cycle;Max_cycle;Signal;HPM_P1;HPM_P2
2022/10/20 00:02:23;;;;;;;6.85;3.33;;;17.00;70.50;;;;;;10366754;28;20046;-65
2022/10/20 00:07:24;;;;;;;4.43;2.97;;;17.00;70.50;;;;;;10368335;28;20439;-65
2022/10/20 00:12:24;;;;;;;5.70;3.15;;;17.00;70.60;;;;;;10376911;28;20093;-65
2022/10/20 00:17:25;;;;;;;4.13;2.58;;;17.00;70.50;;;;;;10366545;28;20606;-65
2022/10/20 00:22:26;;;;;;;6.05;3.35;;;17.00;70.50;;;;;;10365838;28;20018;-65
2022/10/20 00:27:26;;;;;;;5.82;4.03;;;17.00;70.50;;;;;;10380733;28;20164;-65
2022/10/20 00:32:29;;;;;;;4.10;2.20;;;17.00;70.50;;;;;;10349230;28;20024;-65
2022/10/20 00:37:29;;;;;;;5.50;2.65;;;17.00;70.50;;;;;;10365565;28;20474;-65
2022/10/20 00:42:30;;;;;;;4.93;2.85;;;16.90;70.40;;;;;;10366793;28;20133;-65
2022/10/20 00:47:54;;;;;;;4.72;2.63;;;16.90;70.50;;;;;;10365777;28;20433;-65
2022/10/20 00:52:55;;;;;;;5.68;2.90;;;17.00;70.40;;;;;;10364903;28;20481;-66
2022/10/20 00:57:59;;;;;;;3.20;1.88;;;16.90;70.40;;;;;;10365258;28;21060;-65
2022/10/20 01:03:01;;;;;;;3.75;2.20;;;16.90;70.30;;;;;;10366078;28;20034;-65
2022/10/20 01:08:02;;;;;;;5.07;2.65;;;16.90;70.30;;;;;;10369866;28;20136;-65
2022/10/20 01:13:18;;;;;;;3.72;2.20;;;17.00;70.50;;;;;;10364578;28;20109;-65
2022/10/20 01:18:53;;;;;;;4.18;2.58;;;16.90;70.30;;;;;;10364117;28;20061;-64
2022/10/20 01:24:37;;;;;;;4.32;2.50;;;16.90;70.40;;;;;;10345378;28;20072;-65
2022/10/20 01:29:55;;;;;;;4.60;2.65;;;16.90;70.30;;;;;;10365086;28;20042;-65
2022/10/20 01:35:04;;;;;;;4.20;2.63;;;16.90;70.30;;;;;;10356324;28;20699;-65
2022/10/20 01:41:04;;;;;;;3.50;2.67;;;16.90;70.30;;;;;;10363581;28;20603;-65
2022/10/20 01:46:07;;;;;;;3.80;2.60;;;16.90;70.30;;;;;;10379782;28;20029;-66
2022/10/20 01:51:09;;;;;;;4.20;2.13;;;16.90;70.30;;;;;;10379435;28;20080;-65
2022/10/20 01:56:24;;;;;;;4.57;2.30;;;16.90;70.30;;;;;;10373956;28;20084;-65
2022/10/20 02:01:59;;;;;;;4.85;2.58;;;16.90;70.30;;;;;;10347470;28;20029;-65
2022/10/20 02:07:26;;;;;;;3.13;2.05;;;16.90;70.30;;;;;;10364066;28;20075;-66
2022/10/20 02:12:32;;;;;;;6.30;2.25;;;16.90;70.30;;;;;;10376010;28;20497;-65
2022/10/20 02:17:36;;;;;;;3.03;2.08;;;16.90;70.30;;;;;;10362990;28;20026;-65
2022/10/20 02:22:39;;;;;;;2.97;2.08;;;16.80;70.20;;;;;;10361995;28;20026;-66
2022/10/20 02:27:45;;;;;;;4.05;2.03;;;16.80;70.20;;;;;;10378840;28;20131;-65
2022/10/20 02:32:51;;;;;;;2.80;1.80;;;16.80;70.80;;;;;;10361882;28;20236;-65
2022/10/20 02:37:52;;;;;;;3.63;2.03;;;16.80;70.20;;;;;;10362426;28;20030;-65
2022/10/20 02:42:53;;;;;;;3.13;1.88;;;16.80;70.20;;;;;;10362078;28;20544;-65
2022/10/20 02:47:53;;;;;;;4.40;2.10;;;16.80;70.20;;;;;;10378371;28;20129;-66
2022/10/20 02:52:54;;;;;;;3.10;1.73;;;16.80;70.20;;;;;;10361729;28;20046;-65
2022/10/20 02:57:55;;;;;;;2.30;1.55;;;16.80;70.20;;;;;;10361507;28;20161;-65
2022/10/20 03:02:56;;;;;;;3.72;1.85;;;16.80;70.20;;;;;;10362744;28;20125;-65
2022/10/20 03:07:56;;;;;;;2.00;1.40;;;16.80;70.20;;;;;;10365614;28;20025;-66
2022/10/20 03:12:57;;;;;;;2.95;1.65;;;16.80;70.20;;;;;;10375989;28;20026;-65
2022/10/20 03:17:58;;;;;;;3.72;2.42;;;16.80;70.20;;;;;;10369076;28;20053;-65
2022/10/20 03:22:59;;;;;;;4.07;2.33;;;16.80;70.20;;;;;;10368999;28;20037;-65
2022/10/20 03:27:59;;;;;;;3.03;2.17;;;16.80;70.80;;;;;;10368453;28;20030;-65
2022/10/20 03:33:00;;;;;;;4.45;2.00;;;16.80;70.20;;;;;;10368306;28;20113;-65
2022/10/20 03:38:01;;;;;;;2.33;1.55;;;16.80;70.30;;;;;;10381392;28;20048;-66
2022/10/20 03:43:01;;;;;;;3.80;1.85;;;16.80;70.30;;;;;;10367453;28;20088;-65
2022/10/20 03:48:02;;;;;;;2.58;1.58;;;16.80;70.30;;;;;;10368750;28;20029;-64
2022/10/20 03:53:03;;;;;;;3.60;1.70;;;16.80;70.30;;;;;;10368612;28;20072;-63
2022/10/20 03:58:03;;;;;;;6.85;1.90;;;16.80;70.50;;;;;;10367113;28;20029;-63
2022/10/20 04:03:04;;;;;;;6.25;2.65;;;16.80;70.50;;;;;;10365487;28;20048;-64
2022/10/20 04:08:05;;;;;;;8.55;2.60;;;16.80;70.70;;;;;;10381497;28;20125;-66
2022/10/20 04:13:06;;;;;;;3.17;1.50;;;16.80;71.00;;;;;;10382409;28;20022;-65
2022/10/20 04:18:06;;;;;;;4.90;2.08;;;16.80;70.90;;;;;;10362376;28;20499;-65
2022/10/20 04:23:07;;;;;;;5.43;2.30;;;16.80;70.70;;;;;;10365221;28;20791;-64
2022/10/20 04:28:08;;;;;;;3.30;1.50;;;16.80;70.70;;;;;;10364809;28;20026;-65
2022/10/20 04:33:09;;;;;;;3.13;1.70;;;16.70;70.70;;;;;;10371088;28;20032;-65
2022/10/20 04:38:10;;;;;;;4.97;1.92;;;16.80;70.70;;;;;;10341440;28;20034;-66
2022/10/20 04:43:11;;;;;;;3.58;1.90;;;16.80;70.60;;;;;;10364096;28;20128;-66
2022/10/20 04:48:11;;;;;;;3.13;1.70;;;16.70;70.60;;;;;;10366068;28;20108;-65
2022/10/20 04:53:12;;;;;;;2.88;1.75;;;16.70;70.60;;;;;;10366109;28;20113;-65
2022/10/20 04:58:12;;;;;;;4.95;1.80;;;16.70;70.60;;;;;;10365729;28;20103;-64
2022/10/20 05:03:13;;;;;;;6.78;2.13;;;16.70;71.50;;;;;;10364961;28;20465;-65
2022/10/20 05:08:14;;;;;;;2.83;1.42;;;16.80;71.10;;;;;;10375985;28;20124;-65
2022/10/20 05:13:14;;;;;;;4.15;1.63;;;16.80;71.60;;;;;;10351986;28;20121;-65
2022/10/20 05:18:15;;;;;;;6.63;3.38;;;16.90;71.60;;;;;;10364617;28;20048;-64
2022/10/20 05:23:16;;;;;;;8.32;2.05;;;16.90;71.70;;;;;;10365388;28;20060;-66
2022/10/20 05:28:16;;;;;;;8.18;2.47;;;16.90;71.30;;;;;;10364394;28;20541;-66
2022/10/20 05:33:17;;;;;;;12.93;3.65;;;16.80;71.40;;;;;;10360314;28;20100;-67
2022/10/20 05:38:18;;;;;;;14.68;2.83;;;16.80;71.70;;;;;;10338419;28;20018;-65
2022/10/20 05:43:18;;;;;;;21.02;3.90;;;16.80;72.00;;;;;;10363759;28;20129;-65
2022/10/20 05:48:19;;;;;;;12.40;3.38;;;16.70;71.90;;;;;;10363841;28;20703;-65
2022/10/20 05:53:20;;;;;;;8.07;2.55;;;16.70;71.90;;;;;;10380462;28;20117;-65
2022/10/20 05:58:21;;;;;;;7.60;2.35;;;16.70;72.00;;;;;;10362383;28;20022;-65
2022/10/20 06:03:22;;;;;;;9.07;2.70;;;16.70;72.00;;;;;;10362221;28;20022;-65
2022/10/20 06:08:23;;;;;;;10.20;2.88;;;16.70;72.00;;;;;;10367704;28;20062;-64
2022/10/20 06:13:23;;;;;;;12.80;2.92;;;16.70;71.90;;;;;;10376302;28;20018;-67
2022/10/20 06:18:24;;;;;;;8.88;1.92;;;16.80;72.00;;;;;;10373776;28;20028;-68
2022/10/20 06:23:24;;;;;;;12.93;2.75;;;16.70;71.90;;;;;;10363373;28;20064;-68
2022/10/20 06:28:25;;;;;;;10.77;2.65;;;16.70;71.80;;;;;;10360632;28;20080;-66
2022/10/20 06:33:29;;;;;;;7.07;2.15;;;16.70;71.60;;;;;;10375013;28;20109;-67
2022/10/20 06:38:30;;;;;;;12.18;2.72;;;16.70;71.60;;;;;;10371504;28;20374;-67
2022/10/20 06:43:30;;;;;;;5.57;1.92;;;16.70;71.60;;;;;;10356408;28;20082;-66
2022/10/20 06:48:33;;;;;;;6.72;2.35;;;16.70;71.50;;;;;;10370298;28;20119;-67
2022/10/20 06:53:35;;;;;;;5.07;2.03;;;16.70;71.50;;;;;;10368954;28;20018;-66
2022/10/20 06:58:38;;;;;;;6.85;2.58;;;16.70;71.40;;;;;;10369985;28;20018;-67
2022/10/20 07:03:39;;;;;;;5.18;2.17;;;16.70;71.40;;;;;;10359152;28;20079;-67
2022/10/20 07:08:39;;;;;;;6.22;2.08;;;16.60;71.40;;;;;;10366225;28;20025;-66
2022/10/20 07:13:41;;;;;;;3.88;1.65;;;16.60;71.30;;;;;;10370128;28;20014;-66
2022/10/20 07:18:42;;;;;;;3.70;2.10;;;16.60;71.30;;;;;;10368832;28;20034;-66
2022/10/20 07:23:44;;;;;;;5.38;2.20;;;16.60;71.30;;;;;;10368931;28;20501;-66
2022/10/20 07:28:51;;;;;;;4.18;1.80;;;16.60;71.30;;;;;;10369647;28;20572;-67
2022/10/20 07:33:52;;;;;;;3.70;1.65;;;16.60;71.20;;;;;;10366359;28;20044;-67
2022/10/20 07:38:55;;;;;;;5.68;1.70;;;16.60;71.20;;;;;;10357035;28;20022;-67
2022/10/20 07:43:56;;;;;;;7.57;2.63;;;16.60;71.20;;;;;;10364564;28;20049;-67
2022/10/20 07:48:57;;;;;;;3.38;2.05;;;16.60;71.20;;;;;;10368662;28;20095;-67
2022/10/20 07:54:02;;;;;;;5.90;1.88;;;16.60;71.20;;;;;;10382217;28;20533;-66
2022/10/20 07:59:03;;;;;;;7.00;1.83;;;16.60;71.20;;;;;;10363472;28;20030;-66
2022/10/20 08:04:04;;;;;;;4.30;1.85;;;16.60;71.20;;;;;;10367844;28;20072;-67
2022/10/20 08:09:06;;;;;;;3.78;1.83;;;16.60;71.30;;;;;;10379941;28;20665;-67
2022/10/20 08:14:06;;;;;;;4.05;1.65;;;16.60;71.30;;;;;;10372360;28;20060;-67
2022/10/20 08:19:07;;;;;;;4.63;2.08;;;16.60;71.40;;;;;;10366346;28;20117;-66
2022/10/20 08:24:08;;;;;;;4.50;2.13;;;16.60;71.40;;;;;;10365385;28;20018;-66
2022/10/20 08:29:09;;;;;;;2.67;1.75;;;16.60;71.40;;;;;;10357733;28;20138;-66
2022/10/20 08:34:10;;;;;;;2.83;1.50;;;16.60;71.30;;;;;;10349089;28;20030;-67
2022/10/20 08:39:10;;;;;;;3.53;1.80;;;16.60;71.20;;;;;;10354363;28;20480;-66
2022/10/20 08:44:22;;;;;;;4.35;1.85;;;16.60;71.20;;;;;;10369603;28;20077;-66
2022/10/20 08:49:27;;;;;;;2.75;1.45;;;16.60;71.20;;;;;;10364224;28;20095;-66
2022/10/20 08:54:32;;;;;;;2.72;1.63;;;16.60;71.30;;;;;;10361159;28;20021;-66
2022/10/20 08:59:37;;;;;;;3.95;1.92;;;16.60;71.30;;;;;;10370080;28;20029;-66
2022/10/20 09:04:53;;;;;;;2.03;1.45;;;16.60;71.30;;;;;;10365052;28;20469;-67
2022/10/20 09:10:20;;;;;;;2.72;1.60;;;16.60;71.30;;;;;;10367874;28;20077;-66
2022/10/20 09:15:21;;;;;;;2.55;1.77;;;16.60;71.30;;;;;;10365269;28;20022;-66
2022/10/20 09:20:30;;;;;;;2.75;1.50;;;16.60;71.40;;;;;;10363091;28;20561;-66
2022/10/20 09:25:32;;;;;;;3.55;1.80;;;16.50;71.30;;;;;;10379044;28;20207;-66
2022/10/20 09:30:34;;;;;;;3.05;1.77;;;16.50;71.30;;;;;;10362466;28;20353;-66
2022/10/20 09:35:35;;;;;;;3.45;1.70;;;16.60;71.40;;;;;;10362581;28;20033;-66
2022/10/20 09:40:44;;;;;;;3.45;1.77;;;16.60;71.40;;;;;;10362323;28;20054;-66
2022/10/20 09:46:06;;;;;;;2.30;1.85;;;16.50;71.30;;;;;;10361756;28;20030;-67
2022/10/20 09:51:19;;;;;;;4.63;2.03;;;16.50;71.20;;;;;;10363584;28;20419;-67
2022/10/20 09:56:41;;;;;;;2.42;1.60;;;16.50;71.30;;;;;;10362095;28;20516;-66
2022/10/20 10:02:10;;;;;;;2.63;1.30;;;16.50;71.30;;;;;;10362339;28;20068;-66
2022/10/20 10:07:26;;;;;;;2.53;1.50;;;16.50;71.30;;;;;;10352116;28;20034;-66
2022/10/20 10:12:30;;;;;;;2.25;1.38;;;16.50;71.40;;;;;;10370018;28;20026;-67
2022/10/20 10:17:41;;;;;;;2.55;1.85;;;16.50;71.40;;;;;;10360770;28;20022;-66
2022/10/20 10:22:42;;;;;;;2.05;1.20;;;16.50;71.40;;;;;;10373688;28;20029;-66
2022/10/20 10:28:07;;;;;;;2.97;2.10;;;16.50;71.40;;;;;;10360638;28;20026;-66
2022/10/20 10:33:26;;;;;;;1.83;1.30;;;16.50;71.40;;;;;;10361195;28;20025;-66
2022/10/20 10:38:28;;;;;;;2.20;1.30;;;16.50;71.90;;;;;;10360267;28;20104;-66
2022/10/20 10:44:03;;;;;;;2.03;1.13;;;16.50;71.40;;;;;;10368816;28;20050;-66
2022/10/20 10:49:32;;;;;;;2.25;1.60;;;16.50;71.40;;;;;;10344649;28;20585;-66
2022/10/20 10:54:56;;;;;;;2.58;1.70;;;16.50;71.40;;;;;;10360499;28;20022;-65
2022/10/20 11:00:01;;;;;;;2.83;1.58;;;16.50;71.40;;;;;;10359938;28;20450;-65
2022/10/20 11:05:42;;;;;;;2.25;1.65;;;16.50;71.40;;;;;;10360025;28;20451;-65
2022/10/20 11:10:53;;;;;;;2.85;1.70;;;16.50;71.40;;;;;;10383625;28;20018;-66
2022/10/20 11:16:33;;;;;;;4.07;1.60;;;16.50;71.40;;;;;;10372338;28;20277;-67
2022/10/20 11:22:05;;;;;;;3.65;1.95;;;16.50;71.40;;;;;;10361119;28;20018;-66
2022/10/20 11:27:14;;;;;;;3.75;2.00;;;16.50;71.40;;;;;;10360650;28;20030;-67
2022/10/20 11:32:49;;;;;;;3.17;1.58;;;16.50;71.40;;;;;;10365027;28;20477;-66
2022/10/20 11:38:30;;;;;;;1.45;1.00;;;16.50;71.40;;;;;;10368198;28;20105;-66
2022/10/20 11:43:45;;;;;;;2.47;1.60;;;16.50;71.40;;;;;;10368019;28;20669;-66
2022/10/20 11:48:52;;;;;;;1.83;1.33;;;16.40;71.40;;;;;;10366032;28;20315;-66
2022/10/20 11:54:25;;;;;;;3.08;1.60;;;16.40;71.40;;;;;;10367078;28;20113;-66
2022/10/20 12:00:15;;;;;;;2.20;1.33;;;16.50;71.40;;;;;;10367619;28;20053;-66
2022/10/20 12:06:01;;;;;;;2.20;1.48;;;16.40;71.40;;;;;;10366036;28;20034;-65
2022/10/20 12:11:32;;;;;;;2.35;1.90;;;16.40;71.40;;;;;;10372630;28;20017;-65
2022/10/20 12:16:51;;;;;;;2.65;1.08;;;16.40;71.40;;;;;;10379999;28;20084;-66
2022/10/20 12:22:14;;;;;;;2.95;1.70;;;16.40;71.40;;;;;;10366761;28;20045;-66
2022/10/20 12:27:20;;;;;;;2.33;1.40;;;16.40;71.40;;;;;;10364636;28;20085;-66
2022/10/20 12:32:24;;;;;;;3.28;1.80;;;16.40;71.50;;;;;;10381046;28;20119;-66
2022/10/20 12:37:34;;;;;;;1.88;1.38;;;16.40;71.40;;;;;;10365569;28;20689;-65
2022/10/20 12:42:45;;;;;;;2.00;1.33;;;16.40;71.40;;;;;;10351713;28;20104;-66
2022/10/20 12:47:50;;;;;;;2.28;1.55;;;16.40;71.40;;;;;;10380247;28;20030;-66
2022/10/20 12:52:51;;;;;;;2.22;1.50;;;16.40;71.40;;;;;;10364039;28;20018;-66
2022/10/20 12:58:11;;;;;;;2.53;1.50;;;16.50;71.40;;;;;;10363740;28;20022;-66
2022/10/20 13:03:30;;;;;;;3.13;1.80;;;16.40;71.40;;;;;;10363570;28;20105;-66
2022/10/20 13:08:34;;;;;;;2.92;1.38;;;16.40;71.30;;;;;;10386453;28;20033;-66
2022/10/20 13:13:52;;;;;;;2.38;1.80;;;16.40;71.40;;;;;;10363144;28;20327;-66
2022/10/20 13:18:53;;;;;;;2.70;1.55;;;16.40;71.40;;;;;;10363119;28;20022;-66
2022/10/20 13:24:05;;;;;;;1.58;1.08;;;16.40;71.40;;;;;;10376142;28;20100;-66
2022/10/20 13:29:27;;;;;;;2.38;1.30;;;16.40;71.40;;;;;;10362502;28;20481;-66
2022/10/20 13:35:07;;;;;;;1.95;1.58;;;16.40;71.40;;;;;;10349630;28;20049;-66
2022/10/20 13:40:25;;;;;;;;;;;16.40;71.40;;;;;;10384328;28;20037;-66
2022/10/20 13:45:54;;;;;;;2.72;1.80;;;16.40;71.40;;;;;;10362105;28;19921;-65
2022/10/20 13:51:05;;;;;;;2.45;1.60;;;16.40;71.50;;;;;;10361578;28;20061;-65
2022/10/20 13:56:15;;;;;;;1.92;1.30;;;16.40;71.50;;;;;;10361234;28;20021;-66
2022/10/20 14:01:23;;;;;;;;;;;16.40;71.40;;;;;;10378149;28;20033;-66
2022/10/20 14:06:27;;;;;;;2.17;1.50;;;16.40;71.40;;;;;;10361040;28;19921;-65
2022/10/20 14:11:31;;;;;;;2.03;1.30;;;16.40;71.40;;;;;;10385383;28;20014;-66
2022/10/20 14:16:32;;;;;;;1.88;1.25;;;16.40;71.40;;;;;;10362270;28;20041;-66
2022/10/20 14:21:42;;;;;;;2.25;1.60;;;16.40;71.40;;;;;;10361257;28;20467;-66
2022/10/20 14:26:44;;;;;;;2.03;1.17;;;16.40;71.40;;;;;;10360795;28;20025;-66
2022/10/20 14:31:46;;;;;;;1.90;1.33;;;16.40;71.40;;;;;;10374162;28;20551;-66
2022/10/20 14:36:49;;;;;;;2.08;1.40;;;16.40;71.40;;;;;;10376918;28;20014;-66
2022/10/20 14:41:59;;;;;;;2.20;1.75;;;16.40;71.50;;;;;;10361606;28;20053;-66
2022/10/20 14:47:03;;;;;;;2.00;1.30;;;16.40;71.40;;;;;;10360406;28;20609;-66
2022/10/20 14:52:17;;;;;;;2.30;1.52;;;16.40;71.50;;;;;;10361951;28;20018;-66
2022/10/20 14:57:18;;;;;;;2.50;1.63;;;16.40;71.40;;;;;;10376442;28;20018;-66
2022/10/20 15:02:26;;;;;;;2.08;1.30;;;16.40;71.50;;;;;;10361663;28;20113;-66
2022/10/20 15:07:31;;;;;;;1.92;1.33;;;16.40;71.50;;;;;;10365771;28;20180;-66
2022/10/20 15:12:41;;;;;;;2.55;1.75;;;16.40;71.50;;;;;;10360907;28;20026;-65
2022/10/20 15:17:44;;;;;;;;;;;16.40;71.50;;;;;;10381439;28;20026;-65
2022/10/20 15:22:45;;;;;;;3.22;1.60;;;16.50;72.20;;;;;;10377028;28;19909;-65
2022/10/20 15:27:46;;;;;;;2.85;1.90;;;16.50;72.20;;;;;;10368991;28;20038;-66
2022/10/20 15:32:47;;;;;;;2.88;1.70;;;16.50;71.80;;;;;;10369398;28;20040;-65
2022/10/20 15:37:51;;;;;;;2.85;1.58;;;16.50;71.70;;;;;;10379593;28;20026;-65
2022/10/20 15:42:52;;;;;;;2.10;1.40;;;16.50;71.70;;;;;;10368509;28;20054;-65
2022/10/20 15:47:52;;;;;;;2.25;1.58;;;16.40;71.60;;;;;;10381686;28;20448;-63
2022/10/20 15:52:53;;;;;;;18.20;2.83;;;16.40;71.60;;;;;;10365441;28;20104;-67
2022/10/20 15:57:55;;;;;;;11.65;3.20;;;16.50;72.40;;;;;;10367028;28;20049;-62
2022/10/20 16:02:55;;;;;;;10.63;2.60;;;16.50;72.10;;;;;;10377733;28;20090;-65
2022/10/20 16:07:56;;;;;;;7.88;4.03;;;16.50;72.10;;;;;;10370637;28;20251;-64
2022/10/20 16:12:57;;;;;;;11.07;4.10;;;16.70;75.10;;;;;;10370320;28;20021;-66
2022/10/20 16:17:58;;;;;;;8.13;4.13;;;16.90;75.00;;;;;;10367422;28;20018;-66
2022/10/20 16:22:58;;;;;;;8.63;3.13;;;17.00;75.20;;;;;;10367556;28;20022;-66
2022/10/20 16:27:59;;;;;;;12.68;3.20;;;17.00;74.10;;;;;;10367214;28;20117;-61
2022/10/20 16:33:00;;;;;;;15.38;4.20;;;17.00;73.70;;;;;;10367522;28;21493;-62
2022/10/20 16:38:00;;;;;;;13.82;3.80;;;17.00;73.90;;;;;;10367897;28;20119;-64
2022/10/20 16:43:01;;;;;;;12.90;3.83;;;17.00;73.70;;;;;;10365314;28;20137;-61
2022/10/20 16:48:02;;;;;;;8.18;3.25;;;17.00;73.90;;;;;;10364388;28;20034;-61
2022/10/20 16:53:03;;;;;;;16.33;4.20;;;16.90;74.30;;;;;;10363820;28;20014;-62
2022/10/20 16:58:03;;;;;;;21.08;5.00;;;16.80;74.20;;;;;;10339725;28;20029;-62
2022/10/20 17:03:04;;;;;;;20.77;5.40;;;16.80;74.20;;;;;;10364508;28;20056;-62
2022/10/20 17:08:05;;;;;;;16.30;3.90;;;16.70;74.50;;;;;;10388434;28;20065;-62
2022/10/20 17:13:05;;;;;;;19.88;4.00;;;16.70;74.60;;;;;;10365920;28;20108;-62
2022/10/20 17:18:06;;;;;;;9.77;4.05;;;16.70;74.60;;;;;;10363995;28;20046;-62
2022/10/20 17:23:07;;;;;;;9.60;3.70;;;16.70;74.60;;;;;;10363311;28;20029;-62
2022/10/20 17:28:07;;;;;;;15.75;4.15;;;16.60;74.50;;;;;;10362448;28;20122;-61
2022/10/20 17:33:09;;;;;;;6.43;3.10;;;16.60;74.40;;;;;;10360578;28;20560;-62
2022/10/20 17:38:10;;;;;;;12.82;4.07;;;16.60;74.40;;;;;;10361882;28;20030;-60
2022/10/20 17:43:10;;;;;;;11.35;3.30;;;16.60;74.20;;;;;;10363054;28;20085;-60
2022/10/20 17:48:12;;;;;;;9.55;4.30;;;16.60;74.30;;;;;;10362950;28;20037;-59
2022/10/20 17:53:12;;;;;;;8.70;3.72;;;16.60;74.10;;;;;;10363047;28;20026;-59
2022/10/20 17:58:13;;;;;;;8.38;3.72;;;16.60;73.90;;;;;;10358295;28;20562;-59
2022/10/20 18:03:14;;;;;;;12.15;4.32;;;16.60;74.00;;;;;;10359262;28;20032;-60
2022/10/20 18:08:14;;;;;;;10.30;3.83;;;16.60;74.00;;;;;;10360489;28;20132;-60
2022/10/20 18:13:15;;;;;;;8.02;3.97;;;16.60;74.00;;;;;;10361404;28;20101;-60
2022/10/20 18:18:16;;;;;;;6.63;3.50;;;16.60;73.90;;;;;;10356881;28;20366;-60
2022/10/20 18:23:16;;;;;;;5.93;3.60;;;16.60;74.00;;;;;;10358970;28;20474;-60
2022/10/20 18:28:18;;;;;;;9.45;3.63;;;16.60;73.90;;;;;;10361584;28;20798;-60
2022/10/20 18:33:19;;;;;;;7.00;3.65;;;16.60;73.90;;;;;;10360631;28;20026;-61
2022/10/20 18:38:19;;;;;;;9.88;3.72;;;16.60;73.90;;;;;;10359385;28;20030;-60
2022/10/20 18:43:20;;;;;;;8.05;3.70;;;16.50;73.80;;;;;;10367524;28;20513;-60
2022/10/20 18:48:21;;;;;;;9.02;3.67;;;16.50;73.70;;;;;;10368552;28;20109;-60
2022/10/20 18:53:22;;;;;;;6.60;3.00;;;16.50;74.30;;;;;;10367602;28;20049;-60
2022/10/20 18:58:23;;;;;;;7.13;2.65;;;16.50;73.70;;;;;;10368541;28;20049;-61
2022/10/20 19:03:24;;;;;;;6.38;3.20;;;16.60;73.70;;;;;;10373409;28;20113;-60
2022/10/20 19:08:24;;;;;;;6.25;3.88;;;16.50;73.50;;;;;;10368161;28;20093;-60
2022/10/20 19:13:27;;;;;;;7.18;2.88;;;16.50;73.40;;;;;;10363508;28;20018;-61
2022/10/20 19:18:29;;;;;;;6.53;4.40;;;16.60;73.80;;;;;;10366288;28;20022;-60
2022/10/20 19:23:31;;;;;;;6.28;3.25;;;16.60;73.80;;;;;;10366392;28;20470;-61
2022/10/20 19:28:36;;;;;;;4.25;3.25;;;16.60;73.70;;;;;;10368176;28;20044;-61
2022/10/20 19:33:37;;;;;;;5.20;2.80;;;16.50;73.30;;;;;;10381525;28;20392;-60
2022/10/20 19:38:38;;;;;;;9.00;3.60;;;16.60;73.60;;;;;;10364697;28;20026;-61
2022/10/20 19:43:39;;;;;;;4.60;2.63;;;16.50;73.40;;;;;;10366558;28;20046;-61
2022/10/20 19:48:40;;;;;;;5.95;2.90;;;16.50;73.30;;;;;;10367200;28;20037;-61
2022/10/20 19:53:42;;;;;;;5.07;3.53;;;16.50;73.20;;;;;;10365865;28;20456;-60
2022/10/20 19:58:44;;;;;;;6.45;3.03;;;16.50;73.10;;;;;;10363621;28;20080;-60
2022/10/20 20:03:45;;;;;;;4.03;2.83;;;16.50;73.10;;;;;;10361541;28;20156;-60
2022/10/20 20:08:51;;;;;;;7.03;2.75;;;16.50;73.10;;;;;;10365011;28;20033;-61
2022/10/20 20:14:07;;;;;;;6.43;3.30;;;16.50;73.00;;;;;;10365632;28;20504;-61
2022/10/20 20:19:08;;;;;;;5.03;2.67;;;16.50;73.00;;;;;;10366106;28;20030;-62
2022/10/20 20:24:11;;;;;;;4.10;2.88;;;16.50;73.10;;;;;;10365645;28;20397;-61
2022/10/20 20:29:12;;;;;;;6.07;3.22;;;16.50;73.00;;;;;;10351293;28;20456;-62
2022/10/20 20:34:13;;;;;;;4.45;2.72;;;16.50;73.00;;;;;;10362939;28;20075;-61
2022/10/20 20:39:14;;;;;;;6.85;2.75;;;16.50;73.00;;;;;;10365309;28;20571;-61
2022/10/20 20:44:15;;;;;;;4.55;3.28;;;16.50;73.10;;;;;;10364777;28;20088;-61
2022/10/20 20:49:15;;;;;;;3.47;2.70;;;16.50;73.00;;;;;;10367315;28;20030;-61
2022/10/20 20:54:17;;;;;;;4.85;2.78;;;16.50;73.00;;;;;;10365396;28;20026;-61
2022/10/20 20:59:18;;;;;;;5.53;2.85;;;16.50;73.00;;;;;;10365164;28;20026;-61
2022/10/20 21:04:20;;;;;;;4.30;3.00;;;16.50;73.00;;;;;;10376846;28;20053;-61
2022/10/20 21:09:21;;;;;;;3.65;2.75;;;16.50;73.00;;;;;;10365260;28;20068;-61
2022/10/20 21:14:22;;;;;;;3.80;2.67;;;16.50;73.00;;;;;;10364806;28;20025;-60
2022/10/20 21:19:22;;;;;;;3.58;2.63;;;16.40;72.90;;;;;;10364374;28;20029;-61
2022/10/20 21:24:25;;;;;;;5.65;2.53;;;16.50;72.90;;;;;;10364431;28;20480;-61
2022/10/20 21:29:26;;;;;;;4.32;2.70;;;16.50;72.90;;;;;;10364481;28;20035;-61
2022/10/20 21:34:26;;;;;;;6.30;2.60;;;16.50;72.80;;;;;;10363699;28;20104;-60
2022/10/20 21:39:27;;;;;;;6.03;3.05;;;16.40;72.80;;;;;;10364238;28;20026;-62
2022/10/20 21:44:28;;;;;;;4.72;2.75;;;16.50;72.80;;;;;;10364146;28;20775;-61
2022/10/20 21:49:29;;;;;;;4.80;2.97;;;16.50;72.80;;;;;;10363901;28;20064;-61
2022/10/20 21:54:29;;;;;;;4.63;2.65;;;16.40;72.70;;;;;;10350382;28;20064;-61
2022/10/20 21:59:30;;;;;;;4.07;2.78;;;16.40;72.70;;;;;;10366779;28;20081;-62
2022/10/20 22:04:31;;;;;;;3.65;2.90;;;16.40;72.70;;;;;;10359871;28;20026;-61
2022/10/20 22:09:32;;;;;;;3.95;2.60;;;16.40;72.70;;;;;;10364706;28;20521;-61
2022/10/20 22:14:32;;;;;;;5.40;2.78;;;16.40;72.70;;;;;;10362452;28;20025;-61
2022/10/20 22:19:33;;;;;;;4.05;2.50;;;16.40;72.70;;;;;;10362922;28;20105;-61
2022/10/20 22:24:34;;;;;;;4.50;2.72;;;16.40;72.60;;;;;;10342359;28;20022;-60
2022/10/20 22:29:35;;;;;;;4.10;2.90;;;16.40;72.60;;;;;;10360706;28;20544;-61
2022/10/20 22:34:35;;;;;;;4.57;2.80;;;16.40;72.60;;;;;;10361019;28;20042;-61
2022/10/20 22:39:36;;;;;;;5.40;3.22;;;16.40;72.60;;;;;;10362374;28;20477;-60
2022/10/20 22:44:37;;;;;;;4.43;3.40;;;16.40;72.60;;;;;;10363465;28;20097;-61
2022/10/20 22:49:37;;;;;;;4.85;3.00;;;16.40;72.60;;;;;;10363403;28;20138;-61
2022/10/20 22:54:38;;;;;;;4.40;2.80;;;16.40;72.60;;;;;;10361858;28;20448;-61
2022/10/20 22:59:38;;;;;;;3.53;2.50;;;16.40;72.60;;;;;;10362085;28;20045;-61
2022/10/20 23:04:39;;;;;;;3.40;2.70;;;16.40;72.60;;;;;;10375602;28;20054;-61
2022/10/20 23:09:40;;;;;;;4.55;2.95;;;16.40;72.60;;;;;;10362868;28;20435;-61
2022/10/20 23:14:40;;;;;;;3.80;2.95;;;16.40;72.60;;;;;;10363499;28;20025;-61
2022/10/20 23:19:41;;;;;;;4.90;3.67;;;16.40;72.60;;;;;;10360310;28;20022;-61
2022/10/20 23:24:42;;;;;;;3.83;2.80;;;16.40;72.60;;;;;;10359627;28;20079;-61
2022/10/20 23:29:43;;;;;;;5.32;3.17;;;16.40;72.60;;;;;;10369399;28;20105;-61
2022/10/20 23:34:43;;;;;;;5.28;3.25;;;16.40;72.60;;;;;;10352359;28;20042;-61
2022/10/20 23:39:45;;;;;;;2.90;2.08;;;16.40;72.50;;;;;;10369119;28;20097;-61
2022/10/20 23:44:45;;;;;;;3.58;2.78;;;16.40;72.50;;;;;;10380834;28;20069;-61
2022/10/20 23:49:46;;;;;;;4.68;2.83;;;16.40;72.50;;;;;;10384457;28;20041;-61
2022/10/20 23:54:46;;;;;;;3.50;2.42;;;16.40;72.50;;;;;;10369417;28;20109;-61
2022/10/20 23:59:47;;;;;;;3.50;2.55;;;16.40;72.50;;;;;;10369234;28;20566;-61
